createdAt,value
2023-06-19T00:02:18.748Z,18.84
2023-06-19T00:04:41.745Z,18.84
2023-06-19T00:07:05.215Z,18.79
2023-06-19T00:09:27.934Z,18.64
2023-06-19T00:11:50.519Z,18.51
2023-06-19T00:14:13.120Z,18.33
2023-06-19T00:16:35.927Z,18.33
2023-06-19T00:18:58.813Z,18.28
2023-06-19T00:21:21.501Z,18.24
2023-06-19T00:23:44.189Z,18.16
2023-06-19T00:26:08.079Z,18.20
2023-06-19T00:28:32.425Z,18.20
2023-06-19T00:30:57.044Z,18.23
2023-06-19T00:33:19.795Z,18.09
2023-06-19T00:35:42.807Z,18.09
2023-06-19T00:38:07.150Z,18.01
2023-06-19T00:40:34.343Z,17.93
2023-06-19T00:42:57.724Z,18.00
2023-06-19T00:45:20.464Z,17.91
2023-06-19T00:47:43.299Z,17.89
2023-06-19T00:50:06.504Z,17.86
2023-06-19T00:52:29.215Z,17.79
2023-06-19T00:54:52.141Z,17.85
2023-06-19T00:57:56.038Z,17.91
2023-06-19T01:00:19.425Z,17.99
2023-06-19T01:02:42.557Z,18.09
2023-06-19T01:05:05.934Z,18.26
2023-06-19T01:07:44.180Z,18.28
2023-06-19T01:10:09.535Z,18.36
2023-06-19T01:12:36.786Z,18.36
2023-06-19T01:15:04.101Z,18.41
2023-06-19T01:17:29.055Z,18.47
2023-06-19T01:19:51.776Z,18.47
2023-06-19T01:22:26.966Z,18.40
2023-06-19T01:24:49.586Z,18.45
2023-06-19T01:27:14.438Z,18.34
2023-06-19T01:29:37.182Z,18.31
2023-06-19T01:32:13.905Z,18.43
2023-06-19T01:34:40.959Z,18.48
2023-06-19T01:37:06.563Z,18.52
2023-06-19T01:39:29.800Z,18.52
2023-06-19T01:41:53.879Z,18.57
2023-06-19T01:44:16.718Z,18.45
2023-06-19T01:46:42.203Z,18.36
2023-06-19T01:49:09.874Z,18.30
2023-06-19T01:51:32.606Z,18.26
2023-06-19T01:53:57.049Z,18.26
2023-06-19T01:56:19.759Z,18.28
2023-06-19T01:58:42.455Z,18.14
2023-06-19T02:01:05.075Z,18.07
2023-06-19T02:03:27.912Z,18.03
2023-06-19T02:05:50.596Z,18.04
2023-06-19T02:08:13.284Z,17.90
2023-06-19T02:10:36.017Z,17.90
2023-06-19T02:12:59.309Z,17.69
2023-06-19T02:15:22.000Z,17.71
2023-06-19T02:17:44.747Z,17.82
2023-06-19T02:20:10.006Z,17.75
2023-06-19T02:22:33.406Z,17.80
2023-06-19T02:24:56.013Z,17.72
2023-06-19T02:27:18.783Z,17.55
2023-06-19T02:29:41.453Z,17.39
2023-06-19T02:32:04.269Z,17.41
2023-06-19T02:34:27.140Z,17.44
2023-06-19T02:36:49.807Z,17.30
2023-06-19T02:39:12.447Z,17.28
2023-06-19T02:41:35.294Z,17.23
2023-06-19T02:43:59.792Z,17.14
2023-06-19T02:46:22.608Z,17.21
2023-06-19T02:48:45.373Z,17.24
2023-06-19T02:51:08.030Z,17.11
2023-06-19T02:53:30.702Z,17.24
2023-06-19T02:55:53.475Z,17.42
2023-06-19T02:58:16.056Z,17.42
2023-06-19T03:00:38.751Z,17.52
2023-06-19T03:03:01.564Z,17.58
2023-06-19T03:05:24.277Z,17.56
2023-06-19T03:07:47.175Z,17.51
2023-06-19T03:10:10.287Z,17.52
2023-06-19T03:12:32.864Z,17.66
2023-06-19T03:14:55.588Z,17.82
2023-06-19T03:17:19.659Z,17.97
2023-06-19T03:19:42.400Z,18.03
2023-06-19T03:22:05.353Z,18.04
2023-06-19T03:24:28.905Z,17.99
2023-06-19T03:27:02.068Z,17.99
2023-06-19T03:29:24.747Z,18.04
2023-06-19T03:31:56.307Z,18.04
2023-06-19T03:34:23.603Z,17.97
2023-06-19T03:36:47.914Z,17.62
2023-06-19T03:39:10.577Z,17.69
2023-06-19T03:41:34.445Z,17.80
2023-06-19T03:43:57.159Z,17.80
2023-06-19T03:46:20.926Z,17.58
2023-06-19T03:48:43.618Z,17.63
2023-06-19T03:51:06.196Z,17.65
2023-06-19T03:53:29.128Z,17.85
2023-06-19T03:55:53.032Z,18.07
2023-06-19T03:58:16.956Z,18.37
2023-06-19T04:00:39.806Z,18.40
2023-06-19T04:03:02.826Z,18.28
2023-06-19T04:05:25.996Z,18.28
2023-06-19T04:07:48.700Z,18.41
2023-06-19T04:10:12.797Z,18.58
2023-06-19T04:12:35.740Z,18.57
2023-06-19T04:14:58.411Z,18.71
2023-06-19T04:17:21.213Z,18.82
2023-06-19T04:19:45.170Z,18.91
2023-06-19T04:22:08.338Z,19.07
2023-06-19T04:24:31.010Z,19.40
2023-06-19T04:26:53.912Z,19.28
2023-06-19T04:29:18.074Z,18.88
2023-06-19T04:31:42.848Z,19.10
2023-06-19T04:34:05.895Z,19.31
2023-06-19T04:36:28.960Z,19.24
2023-06-19T04:38:54.474Z,19.43
2023-06-19T04:41:17.323Z,19.54
2023-06-19T04:43:42.660Z,19.61
2023-06-19T04:46:05.448Z,19.62
2023-06-19T04:48:28.603Z,19.51
2023-06-19T04:50:51.486Z,19.33
2023-06-19T04:53:14.122Z,19.46
2023-06-19T04:55:36.864Z,19.89
2023-06-19T04:58:00.135Z,19.88
2023-06-19T05:00:25.129Z,20.06
2023-06-19T05:02:48.815Z,20.41
2023-06-19T05:05:12.250Z,20.41
2023-06-19T05:07:35.067Z,20.56
2023-06-19T05:09:57.840Z,20.92
2023-06-19T05:12:20.888Z,21.08
2023-06-19T05:14:43.888Z,21.23
2023-06-19T05:17:07.542Z,21.28
2023-06-19T05:19:30.330Z,21.32
2023-06-19T05:21:52.944Z,21.21
2023-06-19T05:24:15.957Z,21.46
2023-06-19T05:26:38.981Z,21.56
2023-06-19T05:29:01.720Z,21.50
2023-06-19T05:31:24.367Z,21.40
2023-06-19T05:33:47.066Z,21.71
2023-06-19T05:36:09.765Z,21.86
2023-06-19T05:38:32.636Z,21.98
2023-06-19T05:40:55.264Z,22.12
2023-06-19T05:43:19.741Z,22.42
2023-06-19T05:45:42.464Z,22.24
2023-06-19T05:48:05.655Z,22.34
2023-06-19T05:50:28.392Z,22.14
2023-06-19T05:52:51.155Z,22.15
2023-06-19T05:55:13.973Z,22.12
2023-06-19T05:57:36.744Z,22.12
2023-06-19T05:59:59.343Z,22.01
2023-06-19T06:02:22.146Z,21.98
2023-06-19T06:04:44.929Z,21.98
2023-06-19T06:07:07.823Z,22.02
2023-06-19T06:09:30.522Z,22.09
2023-06-19T06:11:53.245Z,22.31
2023-06-19T06:14:16.297Z,22.66
2023-06-19T06:16:39.166Z,22.94
2023-06-19T06:19:01.884Z,23.08
2023-06-19T06:21:24.525Z,23.00
2023-06-19T06:23:48.944Z,22.69
2023-06-19T06:26:12.178Z,23.00
2023-06-19T06:28:35.100Z,23.38
2023-06-19T06:30:57.923Z,23.32
2023-06-19T06:33:20.696Z,23.21
2023-06-19T06:35:43.437Z,23.58
2023-06-19T06:38:06.240Z,23.90
2023-06-19T06:40:29.020Z,24.03
2023-06-19T06:42:51.745Z,24.12
2023-06-19T06:45:14.858Z,24.04
2023-06-19T06:47:37.614Z,24.16
2023-06-19T06:50:00.361Z,24.41
2023-06-19T06:52:23.071Z,24.65
2023-06-19T06:54:46.240Z,24.78
2023-06-19T06:57:09.357Z,24.58
2023-06-19T06:59:32.078Z,24.47
2023-06-19T07:01:56.202Z,24.61
2023-06-19T07:04:19.657Z,24.45
2023-06-19T07:06:42.366Z,24.54
2023-06-19T07:09:05.303Z,24.68
2023-06-19T07:11:28.219Z,25.05
2023-06-19T07:13:51.142Z,24.96
2023-06-19T07:16:13.859Z,25.16
2023-06-19T07:18:39.803Z,25.33
2023-06-19T07:21:13.139Z,25.20
2023-06-19T07:23:37.910Z,25.54
2023-06-19T07:26:00.883Z,26.11
2023-06-19T07:28:23.562Z,26.53
2023-06-19T07:30:48.822Z,26.43
2023-06-19T07:33:11.632Z,26.25
2023-06-19T07:35:34.295Z,26.22
2023-06-19T07:37:57.023Z,26.23
2023-06-19T07:40:19.699Z,25.82
2023-06-19T07:42:44.505Z,26.01
2023-06-19T07:45:08.114Z,26.13
2023-06-19T07:47:30.943Z,25.99
2023-06-19T07:49:53.695Z,26.22
2023-06-19T07:52:16.458Z,26.12
2023-06-19T07:54:58.117Z,25.89
2023-06-19T07:57:21.649Z,25.95
2023-06-19T07:59:45.901Z,25.96
2023-06-19T08:02:08.663Z,26.19
2023-06-19T08:04:33.250Z,26.37
2023-06-19T08:06:57.421Z,26.35
2023-06-19T08:09:20.299Z,26.51
2023-06-19T08:11:43.001Z,26.59
2023-06-19T08:14:05.568Z,26.80
2023-06-19T08:16:28.855Z,26.77
2023-06-19T08:18:52.013Z,26.53
2023-06-19T08:21:14.791Z,26.70
2023-06-19T08:23:39.093Z,26.91
2023-06-19T08:26:01.838Z,26.83
2023-06-19T08:28:24.849Z,26.77
2023-06-19T08:30:47.576Z,26.84
2023-06-19T08:33:11.410Z,26.70
2023-06-19T08:35:34.268Z,26.98
2023-06-19T08:37:57.066Z,27.01
2023-06-19T08:40:20.716Z,27.24
2023-06-19T08:42:44.676Z,26.97
2023-06-19T08:45:08.446Z,26.92
2023-06-19T08:47:35.756Z,26.98
2023-06-19T08:50:02.363Z,27.33
2023-06-19T08:52:25.588Z,27.41
2023-06-19T08:54:48.754Z,27.50
2023-06-19T08:57:13.610Z,27.56
2023-06-19T08:59:36.600Z,27.59
2023-06-19T09:01:59.433Z,27.81
2023-06-19T09:04:28.130Z,27.90
2023-06-19T09:06:55.785Z,27.53
2023-06-19T09:09:22.135Z,27.47
2023-06-19T09:11:44.767Z,27.54
2023-06-19T09:14:07.524Z,27.87
2023-06-19T09:16:41.184Z,27.71
2023-06-19T09:19:03.922Z,28.08
2023-06-19T09:21:26.586Z,28.12
2023-06-19T09:23:51.021Z,28.12
2023-06-19T09:26:17.135Z,28.32
2023-06-19T09:28:45.390Z,28.24
2023-06-19T09:31:08.131Z,28.29
2023-06-19T09:33:33.047Z,28.46
2023-06-19T09:35:57.476Z,28.60
2023-06-19T09:38:25.574Z,28.80
2023-06-19T09:40:49.194Z,28.65
2023-06-19T09:43:12.768Z,28.45
2023-06-19T09:45:35.888Z,28.37
2023-06-19T09:47:58.599Z,28.44
2023-06-19T09:50:38.963Z,28.76
2023-06-19T09:53:04.412Z,28.66
2023-06-19T09:55:32.010Z,28.84
2023-06-19T09:57:54.878Z,28.93
2023-06-19T10:00:23.569Z,28.62
2023-06-19T10:03:14.178Z,28.76
2023-06-19T10:05:37.622Z,28.76
2023-06-19T10:08:02.114Z,28.73
2023-06-19T10:10:26.846Z,29.15
2023-06-19T10:12:49.846Z,28.94
2023-06-19T10:15:14.057Z,28.94
2023-06-19T10:17:36.699Z,28.83
2023-06-19T10:19:59.431Z,28.45
2023-06-19T10:22:25.125Z,28.29
2023-06-19T10:24:51.763Z,28.37
2023-06-19T10:27:22.824Z,28.24
2023-06-19T10:29:53.282Z,28.45
2023-06-19T10:32:22.341Z,28.41
2023-06-19T10:34:50.139Z,28.52
2023-06-19T10:37:13.625Z,28.69
2023-06-19T10:39:36.327Z,28.51
2023-06-19T10:41:59.888Z,28.58
2023-06-19T10:44:26.020Z,28.65
2023-06-19T10:46:48.844Z,28.70
2023-06-19T10:49:12.580Z,28.93
2023-06-19T10:51:36.622Z,28.69
2023-06-19T10:53:59.497Z,28.60
2023-06-19T10:56:23.804Z,28.66
2023-06-19T10:58:46.532Z,28.62
2023-06-19T11:01:09.930Z,28.79
2023-06-19T11:03:33.257Z,28.73
2023-06-19T11:05:56.248Z,28.82
2023-06-19T11:08:20.554Z,28.96
2023-06-19T11:10:43.678Z,28.97
2023-06-19T11:13:06.324Z,29.00
2023-06-19T11:15:33.140Z,29.11
2023-06-19T11:17:55.928Z,29.50
2023-06-19T11:20:18.631Z,29.41
2023-06-19T11:22:42.702Z,29.08
2023-06-19T11:25:06.357Z,29.00
2023-06-19T11:27:32.201Z,29.00
2023-06-19T11:30:01.516Z,29.41
2023-06-19T11:32:26.169Z,29.35
2023-06-19T11:34:49.121Z,29.17
2023-06-19T11:37:16.341Z,29.23
2023-06-19T11:40:19.966Z,29.21
2023-06-19T11:42:50.038Z,29.45
2023-06-19T11:45:12.741Z,29.34
2023-06-19T11:47:35.777Z,29.25
2023-06-19T11:49:59.150Z,29.54
2023-06-19T11:52:21.939Z,29.48
2023-06-19T11:54:44.737Z,29.42
2023-06-19T11:57:07.649Z,29.30
2023-06-19T11:59:31.401Z,29.61
2023-06-19T12:01:54.316Z,29.83
2023-06-19T12:04:17.742Z,29.82
2023-06-19T12:06:40.606Z,29.62
2023-06-19T12:09:05.880Z,29.38
2023-06-19T12:11:28.780Z,29.51
2023-06-19T12:13:51.806Z,29.51
2023-06-19T12:16:15.383Z,29.51
2023-06-19T12:18:38.188Z,29.48
2023-06-19T12:21:00.913Z,29.51
2023-06-19T12:23:23.641Z,29.52
2023-06-19T12:25:46.335Z,29.54
2023-06-19T12:28:09.611Z,29.52
2023-06-19T12:30:32.669Z,29.06
2023-06-19T12:32:55.387Z,28.96
2023-06-19T12:35:19.436Z,28.93
2023-06-19T12:37:42.256Z,29.11
2023-06-19T12:40:12.029Z,29.25
2023-06-19T12:42:34.693Z,29.28
2023-06-19T12:44:57.370Z,29.50
2023-06-19T12:47:20.156Z,29.54
2023-06-19T12:49:42.851Z,29.88
2023-06-19T12:52:06.116Z,29.73
2023-06-19T12:54:29.317Z,30.16
2023-06-19T12:56:52.126Z,30.34
2023-06-19T12:59:15.022Z,29.98
2023-06-19T13:01:37.656Z,29.69
2023-06-19T13:04:00.540Z,29.59
2023-06-19T13:06:23.669Z,29.71
2023-06-19T13:08:46.832Z,29.52
2023-06-19T13:11:09.599Z,29.39
2023-06-19T13:13:32.312Z,29.48
2023-06-19T13:15:55.020Z,29.18
2023-06-19T13:18:19.562Z,29.14
2023-06-19T13:20:42.425Z,29.03
2023-06-19T13:23:05.218Z,28.94
2023-06-19T13:25:27.992Z,28.90
2023-06-19T13:27:50.984Z,28.82
2023-06-19T13:30:14.731Z,28.79
2023-06-19T13:32:39.000Z,28.87
2023-06-19T13:35:01.810Z,29.13
2023-06-19T13:37:24.736Z,29.11
2023-06-19T13:39:47.352Z,29.07
2023-06-19T13:42:10.328Z,29.27
2023-06-19T13:44:33.048Z,29.39
2023-06-19T13:46:55.864Z,29.50
2023-06-19T13:49:18.469Z,29.44
2023-06-19T13:51:41.309Z,29.47
2023-06-19T13:54:06.937Z,29.47
2023-06-19T13:56:29.679Z,29.54
2023-06-19T13:58:52.417Z,29.45
2023-06-19T14:01:15.195Z,29.28
2023-06-19T14:03:40.657Z,29.34
2023-06-19T14:06:03.708Z,29.75
2023-06-19T14:08:26.473Z,29.63
2023-06-19T14:10:49.182Z,29.95
2023-06-19T14:13:14.567Z,30.09
2023-06-19T14:15:37.605Z,30.10
2023-06-19T14:18:00.282Z,30.10
2023-06-19T14:20:23.370Z,30.44
2023-06-19T14:22:46.204Z,30.27
2023-06-19T14:25:09.462Z,30.38
2023-06-19T14:27:32.152Z,30.68
2023-06-19T14:29:55.959Z,30.91
2023-06-19T14:32:18.580Z,31.03
2023-06-19T14:34:41.365Z,31.04
2023-06-19T14:37:04.251Z,31.06
2023-06-19T14:39:26.884Z,31.03
2023-06-19T14:41:49.598Z,30.98
2023-06-19T14:44:12.240Z,30.54
2023-06-19T14:46:40.240Z,30.26
2023-06-19T14:49:03.246Z,30.48
2023-06-19T14:51:26.810Z,30.88
2023-06-19T14:53:49.522Z,31.13
2023-06-19T14:56:12.287Z,31.33
2023-06-19T14:58:34.980Z,30.93
2023-06-19T15:00:59.158Z,30.33
2023-06-19T15:03:22.061Z,30.18
2023-06-19T15:05:44.745Z,30.45
2023-06-19T15:08:08.947Z,30.55
2023-06-19T15:10:31.703Z,30.28
2023-06-19T15:12:54.697Z,30.27
2023-06-19T15:15:17.426Z,30.55
2023-06-19T15:17:40.073Z,30.85
2023-06-19T15:20:02.804Z,30.68
2023-06-19T15:22:28.464Z,30.69
2023-06-19T15:24:51.108Z,30.37
2023-06-19T15:27:13.794Z,30.63
2023-06-19T15:29:36.910Z,30.84
2023-06-19T15:31:59.592Z,30.92
2023-06-19T15:34:22.297Z,30.84
2023-06-19T15:36:44.955Z,30.88
2023-06-19T15:39:07.663Z,30.81
2023-06-19T15:41:31.042Z,30.79
2023-06-19T15:43:53.662Z,30.53
2023-06-19T15:46:16.690Z,30.55
2023-06-19T15:48:39.448Z,30.47
2023-06-19T15:51:02.786Z,30.49
2023-06-19T15:53:25.470Z,30.38
2023-06-19T15:55:48.178Z,30.18
2023-06-19T15:58:10.799Z,30.23
2023-06-19T16:00:33.527Z,30.18
2023-06-19T16:02:56.314Z,30.06
2023-06-19T16:05:19.130Z,30.13
2023-06-19T16:07:42.381Z,30.20
2023-06-19T16:10:05.596Z,30.20
2023-06-19T16:12:28.219Z,30.10
2023-06-19T16:14:50.909Z,29.96
2023-06-19T16:17:13.444Z,30.03
2023-06-19T16:19:36.692Z,30.10
2023-06-19T16:22:00.598Z,29.92
2023-06-19T16:24:23.689Z,29.95
2023-06-19T16:26:46.734Z,29.92
2023-06-19T16:29:09.652Z,29.89
2023-06-19T16:31:32.395Z,29.85
2023-06-19T16:33:55.394Z,29.82
2023-06-19T16:36:18.483Z,29.89
2023-06-19T16:38:41.625Z,29.88
2023-06-19T16:41:04.409Z,29.79
2023-06-19T16:43:27.063Z,29.80
2023-06-19T16:45:49.618Z,29.71
2023-06-19T16:48:12.441Z,29.58
2023-06-19T16:50:36.461Z,29.54
2023-06-19T16:53:00.098Z,29.57
2023-06-19T16:55:23.899Z,29.65
2023-06-19T16:57:47.941Z,29.55
2023-06-19T17:00:11.716Z,29.57
2023-06-19T17:02:34.790Z,29.59
2023-06-19T17:04:57.458Z,29.47
2023-06-19T17:07:22.866Z,29.48
2023-06-19T17:09:47.318Z,29.41
2023-06-19T17:12:10.900Z,29.20
2023-06-19T17:14:33.497Z,29.21
2023-06-19T17:16:56.436Z,29.07
2023-06-19T17:19:19.228Z,29.03
2023-06-19T17:21:42.188Z,28.99
2023-06-19T17:24:05.209Z,28.87
2023-06-19T17:26:28.123Z,28.89
2023-06-19T17:28:50.791Z,28.73
2023-06-19T17:31:13.435Z,28.69
2023-06-19T17:33:36.095Z,28.70
2023-06-19T17:35:59.912Z,28.65
2023-06-19T17:38:22.656Z,28.60
2023-06-19T17:40:45.360Z,28.53
2023-06-19T17:43:08.109Z,28.52
2023-06-19T17:45:30.774Z,28.48
2023-06-19T17:47:53.586Z,28.44
2023-06-19T17:50:16.301Z,28.42
2023-06-19T17:52:40.153Z,28.29
2023-06-19T17:55:03.068Z,28.17
2023-06-19T17:57:27.134Z,28.14
2023-06-19T17:59:49.907Z,28.08
2023-06-19T18:02:12.504Z,28.01
2023-06-19T18:04:35.357Z,27.93
2023-06-19T18:06:57.886Z,27.81
2023-06-19T18:09:20.609Z,27.74
2023-06-19T18:11:43.325Z,27.60
2023-06-19T18:14:06.007Z,27.46
2023-06-19T18:16:28.727Z,27.33
2023-06-19T18:18:51.423Z,27.15
2023-06-19T18:21:14.098Z,27.08
2023-06-19T18:23:37.242Z,27.02
2023-06-19T18:25:59.813Z,27.05
2023-06-19T18:28:22.564Z,26.98
2023-06-19T18:30:45.215Z,26.94
2023-06-19T18:33:08.108Z,26.81
2023-06-19T18:35:32.463Z,26.67
2023-06-19T18:37:55.413Z,26.56
2023-06-19T18:40:18.119Z,26.44
2023-06-19T18:42:42.169Z,26.47
2023-06-19T18:45:05.773Z,26.43
2023-06-19T18:47:28.646Z,26.41
2023-06-19T18:49:51.625Z,26.46
2023-06-19T18:52:14.402Z,26.33
2023-06-19T18:54:37.047Z,26.20
2023-06-19T18:56:59.663Z,26.02
2023-06-19T18:59:22.632Z,25.94
2023-06-19T19:01:45.377Z,25.98
2023-06-19T19:04:08.051Z,25.99
2023-06-19T19:06:30.790Z,25.95
2023-06-19T19:08:57.456Z,25.91
2023-06-19T19:11:20.251Z,25.28
2023-06-19T19:13:43.781Z,25.03
2023-06-19T19:16:06.512Z,25.19
2023-06-19T19:18:29.395Z,25.17
2023-06-19T19:20:52.067Z,25.16
2023-06-19T19:23:14.754Z,25.23
2023-06-19T19:25:39.153Z,25.40
2023-06-19T19:28:02.022Z,25.37
2023-06-19T19:30:25.577Z,25.46
2023-06-19T19:32:48.758Z,25.28
2023-06-19T19:35:11.473Z,25.34
2023-06-19T19:37:34.152Z,25.24
2023-06-19T19:39:57.946Z,25.19
2023-06-19T19:42:21.056Z,25.26
2023-06-19T19:44:44.104Z,25.19
2023-06-19T19:47:07.218Z,25.23
2023-06-19T19:49:29.996Z,25.02
2023-06-19T19:51:52.604Z,24.99
2023-06-19T19:54:15.577Z,25.05
2023-06-19T19:56:38.585Z,25.00
2023-06-19T19:59:01.251Z,24.86
2023-06-19T20:01:24.001Z,24.78
2023-06-19T20:03:47.046Z,24.76
2023-06-19T20:06:11.152Z,24.69
2023-06-19T20:08:34.380Z,24.60
2023-06-19T20:10:57.033Z,24.62
2023-06-19T20:13:19.663Z,24.61
2023-06-19T20:15:42.371Z,24.42
2023-06-19T20:18:05.400Z,24.38
2023-06-19T20:20:28.426Z,24.40
2023-06-19T20:22:51.350Z,24.47
2023-06-19T20:25:14.067Z,24.51
2023-06-19T20:27:36.704Z,24.40
2023-06-19T20:29:59.362Z,24.40
2023-06-19T20:32:22.101Z,24.34
2023-06-19T20:34:44.718Z,24.21
2023-06-19T20:37:07.602Z,24.16
2023-06-19T20:39:30.193Z,24.03
2023-06-19T20:41:52.841Z,24.00
2023-06-19T20:44:18.862Z,24.03
2023-06-19T20:46:41.579Z,23.93
2023-06-19T20:49:04.353Z,23.93
2023-06-19T20:51:27.000Z,23.90
2023-06-19T20:53:49.642Z,23.89
2023-06-19T20:56:12.320Z,23.86
2023-06-19T20:58:34.970Z,23.89
2023-06-19T21:00:57.633Z,23.87
2023-06-19T21:03:24.535Z,23.76
2023-06-19T21:05:50.251Z,23.82
2023-06-19T21:08:12.933Z,23.83
2023-06-19T21:10:35.671Z,23.89
2023-06-19T21:13:07.180Z,23.99
2023-06-19T21:15:40.657Z,23.92
2023-06-19T21:18:03.555Z,23.73
2023-06-19T21:20:27.292Z,23.69
2023-06-19T21:22:50.253Z,23.62
2023-06-19T21:25:12.976Z,23.58
2023-06-19T21:27:35.700Z,23.54
2023-06-19T21:29:58.414Z,23.45
2023-06-19T21:32:21.641Z,23.52
2023-06-19T21:34:44.374Z,23.51
2023-06-19T21:37:07.169Z,23.61
2023-06-19T21:39:29.780Z,23.62
2023-06-19T21:41:52.521Z,23.55
2023-06-19T21:44:15.227Z,23.62
2023-06-19T21:46:37.994Z,23.59
2023-06-19T21:49:01.739Z,23.55
2023-06-19T21:51:24.412Z,23.51
2023-06-19T21:53:47.139Z,23.55
2023-06-19T21:56:10.049Z,23.48
2023-06-19T21:58:32.682Z,23.35
2023-06-19T22:00:55.292Z,23.37
2023-06-19T22:03:18.076Z,23.24
2023-06-19T22:05:40.795Z,23.25
2023-06-19T22:08:03.493Z,23.20
2023-06-19T22:10:29.349Z,23.15
2023-06-19T22:12:52.260Z,23.07
2023-06-19T22:15:15.322Z,22.94
2023-06-19T22:17:38.431Z,22.86
2023-06-19T22:20:42.543Z,22.82
2023-06-19T22:23:06.130Z,22.80
2023-06-19T22:25:28.827Z,22.87
2023-06-19T22:27:55.392Z,22.67
2023-06-19T22:30:18.598Z,22.55
2023-06-19T22:32:41.959Z,22.46
2023-06-19T22:35:05.349Z,22.46
2023-06-19T22:37:28.519Z,22.52
2023-06-19T22:39:51.191Z,22.28
2023-06-19T22:42:13.901Z,22.36
2023-06-19T22:44:36.684Z,22.29
2023-06-19T22:46:59.390Z,22.19
2023-06-19T22:49:22.070Z,22.18
2023-06-19T22:51:44.872Z,22.02
2023-06-19T22:54:08.019Z,22.01
2023-06-19T22:56:30.946Z,21.97
2023-06-19T22:58:53.526Z,22.04
2023-06-19T23:01:16.293Z,21.84
2023-06-19T23:03:41.426Z,21.94
2023-06-19T23:06:05.093Z,21.90
2023-06-19T23:08:27.880Z,22.05
2023-06-19T23:10:50.555Z,21.98
2023-06-19T23:13:13.428Z,22.00
2023-06-19T23:15:37.225Z,21.95
2023-06-19T23:18:00.391Z,21.97
2023-06-19T23:20:23.095Z,21.77
2023-06-19T23:22:48.756Z,21.66
2023-06-19T23:25:12.111Z,21.69
2023-06-19T23:27:35.666Z,21.59
2023-06-19T23:29:58.362Z,21.50
2023-06-19T23:32:23.134Z,21.49
2023-06-19T23:34:45.982Z,21.40
2023-06-19T23:37:08.612Z,21.39
2023-06-19T23:39:31.318Z,21.35
2023-06-19T23:41:54.772Z,21.30
2023-06-19T23:44:17.665Z,21.22
2023-06-19T23:46:40.317Z,21.18
2023-06-19T23:49:03.061Z,21.19
2023-06-19T23:51:25.787Z,21.26
2023-06-19T23:53:48.619Z,21.21
2023-06-19T23:56:11.177Z,21.16
2023-06-19T23:58:33.947Z,21.23
